Wrightwood, California
Current Conditions -  °F | °C
As of 7:55 PM on Saturday 25 Oct 2014 (Local Time) from KGXA Reporting Station
Clear Clear  
Wind Chill: 64°   Ceiling: Unl
Heat Index: 64°   Visibility: 10mi
Dew Point: 40°   Wind: 3mph
Humidity: 41%   Direction: 300°WNW
Pressure: 30.05"   Gusts: NA
Location:  34.36°N, 117.63°W
Report Text: KGXA 260255Z AUTO 30003KT 10SM CLR 18/04 A3005 RMK AO2 SLP158 T01790044 52002 TSNO $
Loading
Personal Weather Stations






























Interactive Weather Map
Tropical Storm Tracking
New forecast layout! Learn more

10-Day Weather Forecast

Advertisements
Track Severe Weather on mobile